Hlavní strana
METAR-TAF:

METAR-TAF

Letiště :

Mezinárodní letiště Léon-Mba

Libreville, Gabon

zeměpisná šířka: 00-27N, zeměpisná délka: 009-25E, výška: 12 m

Aktuální stav počasí

Zpráva byla vytvořena před 17 minutami, v 23:00 UTC
vítr z různých směrů 2 kt
Teplota 25°C
Vlhkost vzduchu 94%
Tlak 1008 hPa
Viditelnost 10 km a více
Skoro jasno ve výšce 1000 ft

METAR: FOOL 122300Z VRB02KT 9999 FEW010 25/24 Q1008 NOSIG

Čas: 00:17 (23:17 UTC)

Předpověď počasí

Zpráva byla vytvořena před 6 hodinami a 8 minutami, v 17:09 UTC
Předpověď platná od 12 v 18 UTC do 13 v 24 UTC
Jihojihozápadní vítr 7 kt
Viditelnost 10 km a více
Polojasno ve výšce 1000 ft
Skoro jasno ve výšce 2000 ft, Cumulonimbus.
Oblačno až skoro zataženo ve výšce 3000 ft
Pravděpodobnost 30% :
Dočasný
od 12 v 22 UTC do 13 v 04 UTC
Viditelnost: 4000 m
bouřka, déšť

TAF: FOOL 121709Z 1218/1324 21007KT 9999 SCT010 FEW020CB BKN030 PROB30 TEMPO 1222/1304 4000 TSRA

Stav a předpovědi počasí z více než 4 000 letišť (zprávy METAR a TAF).

Červené a žluté tečky na mapě představují dostupné meteorologické stanice.

Když kurzor umístíte na tečku, zobrazí se název stanice.

Pak kliknutím zobrazíte stav a předpověď počasí.

Chcete-li změnit mapu, kliknutím na zelené tlačítko se znaménkem +mapu přiblížíte, kliknutím na zelené tlačítko se znaménkem – mapu oddálíte a kliknutím na zelené šipky přejdete na sousední mapy.


METAR-TAF: